Gold Coast Seaway, Queensland

4:42 AM EST on August 24, 2014 (GMT +1000)
Labrador Gold Coast | Change Station
CLOSE
Current Station
Personal Weather Station
Location: Biggera Waters, QUEENSLAND
Elevation: 37 ft
Nearby Weather Stations

Elev 37 ft 27.93 °S, 153.40 °E | Updated 10 seconds ago

Mostly Cloudy
Mostly Cloudy
63.9 °F
Feels Like 63.9 °F
N
0.9
Wind Variable Wind from ESE
Gusts 2.5 mph

Today
High -- | Low -- °F
--% Chance of Precip.
Yesterday
High -- | Low -- °F
Precip. -- in
6:09 AM 5:28 PM
Waning Crescent, 3% visible
Pressure 30.21 in
Visibility -9999.0 miles
Clouds Scattered Clouds 2000 ft
Mostly Cloudy 2900 ft
Mostly Cloudy 3500 ft
Dew Point 62 °F
Humidity 94%
Rainfall 0.18 in
Snow Depth Not available.
UV 0.0 out of 12
Pollen Not available.
Air Quality Not available.
Flu Activity Not available.
SPECI YBCG 231830Z AUTO 18006KT 3600 // SCT020 BKN029 BKN035 15/14 Q1023

More Conditions Fewer Conditions

Pressure 30.21 in
Visibility -9999.0 miles
Clouds Scattered Clouds 2000 ft
Mostly Cloudy 2900 ft
Mostly Cloudy 3500 ft
Dew Point 62 °F
Humidity 94%
Rainfall 0.18 in
Snow Depth Not available.
UV 0.0 out of 12
Pollen Not available.
Air Quality Not available.
Flu Activity Not available.
SPECI YBCG 231830Z AUTO 18006KT 3600 // SCT020 BKN029 BKN035 15/14 Q1023

More Conditions Fewer Conditions

10-Day Weather Forecast

Almanac

Astronomy

Aug. 24, 2014 Rise Set
Actual Time 6:09 AM EST 5:28 PM EST
Civil Twilight 5:45 AM EST 5:52 PM EST
Nautical Twilight 5:17 AM EST 6:19 PM EST
Astronomical Twilight 4:50 AM EST 6:47 PM EST
Moon 4:54 AM EST (8/24) 4:21 PM EST (8/24)
Length of Visible Light 12h 07m
Length of Day
11h 19m
Tomorrow will be 1m 30s longer.
Waning Crescent, 3% of the Moon is Illuminated
Aug 23
Waning Crescent
Aug 25
New
Sep 2
First Quarter
Sep 8
Full
Sep 15
Last Quarter

Yesterday's Extremes

Country Highs Country Lows

Community

WunderPhotos

Upload Photos

1,746,558 photos uploaded!

WunderBlogs® & News

By Dr. Jeff Masters
Director of Meteorology, Weather Underground
By Kari Strenfel
Meteorologist, Weather Underground
By Christopher C. Burt
Weather Historian, Weather Underground
August 23, 2014
August 23, 2014
August 23, 2014

Nearby

Snow Depth

Not available.

Earthquake Activity

City Distance Mag. Time & Date
No recent earthquake activity has been reported nearby.
Minimum magnitude displayed is 2.5.

Coastal Water Temperatures

Place Temperature
No Stations Reporting

Nearby Weather Stations